Time;durP1;ratioP1;P1;durP2;ratioP2;P2;SDS_P1;SDS_P2;PMS_P1;PMS_P2;Temp;Humidity;BMP_temperature;BMP_pressure;BME280_temperature;BME280_humidity;BME280_pressure;Samples;Min_cycle;Max_cycle;Signal;HPM_P1;HPM_P2
2023/02/26 00:00:28;;;;;;;5.25;3.50;;;;;;;-0.50;84.92;100881.41;5021609;28;20085;-77
2023/02/26 00:02:54;;;;;;;10.25;3.25;;;;;;;-0.51;85.50;100886.63;5020943;28;21009;-77
2023/02/26 00:05:21;;;;;;;5.22;3.20;;;;;;;-0.51;85.51;100882.31;5021060;28;20049;-77
2023/02/26 00:07:48;;;;;;;7.43;3.45;;;;;;;-0.44;85.54;100891.34;5019259;28;20474;-76
2023/02/26 00:10:16;;;;;;;9.65;3.78;;;;;;;-0.37;86.02;100897.00;5020601;28;20129;-77
2023/02/26 00:12:44;;;;;;;7.18;3.83;;;;;;;-0.39;86.13;100891.09;5021180;28;20085;-79
2023/02/26 00:15:13;;;;;;;8.77;3.80;;;;;;;-0.26;85.92;100909.28;5018293;28;20049;-78
2023/02/26 00:17:45;;;;;;;9.45;3.38;;;;;;;-0.25;85.88;100908.38;5018767;28;20050;-79
2023/02/26 00:20:16;;;;;;;7.10;3.58;;;;;;;-0.15;85.65;100912.16;5020871;28;20054;-78
2023/02/26 00:22:44;;;;;;;6.07;3.50;;;;;;;-0.18;85.81;100909.72;5019811;28;20117;-78
2023/02/26 00:25:11;;;;;;;6.20;3.45;;;;;;;-0.17;86.00;100912.22;5019671;28;20128;-76
2023/02/26 00:27:40;;;;;;;7.63;3.38;;;;;;;-0.14;85.49;100921.53;5019778;28;20069;-77
2023/02/26 00:30:09;;;;;;;11.63;4.30;;;;;;;-0.14;85.46;100924.91;5019382;28;20471;-80
2023/02/26 00:32:41;;;;;;;11.00;3.30;;;;;;;-0.10;85.91;100923.84;5020115;28;20053;-79
2023/02/26 00:35:12;;;;;;;10.38;3.55;;;;;;;-0.12;85.91;100928.25;5024352;28;20060;-78
2023/02/26 00:37:59;;;;;;;5.65;2.90;;;;;;;-0.05;85.81;100936.47;5018217;28;20085;-78
2023/02/26 00:40:35;;;;;;;6.38;3.28;;;;;;;-0.05;86.19;100936.47;5023636;28;20053;-77
2023/02/26 00:43:05;;;;;;;6.30;3.28;;;;;;;-0.08;85.85;100944.34;5023777;28;20065;-78
2023/02/26 00:45:34;;;;;;;9.95;3.85;;;;;;;0.00;86.18;100943.00;5022322;28;20060;-75
2023/02/26 00:48:17;;;;;;;8.07;3.50;;;;;;;-0.06;86.51;100945.09;5014602;28;20565;-76
2023/02/26 00:50:54;;;;;;;6.88;3.75;;;;;;;-0.03;86.42;100950.91;5023845;28;20077;-79
2023/02/26 00:53:27;;;;;;;6.93;3.50;;;;;;;0.00;86.52;100949.94;5023162;28;20108;-78
2023/02/26 00:55:53;;;;;;;9.77;3.65;;;;;;;-0.04;86.66;100943.28;5022948;28;20132;-80
2023/02/26 00:58:21;;;;;;;7.43;3.60;;;;;;;-0.05;86.53;100946.75;5020087;28;20093;-79
2023/02/26 01:00:48;;;;;;;7.60;3.60;;;;;;;-0.13;86.43;100944.59;5020839;28;20077;-78
2023/02/26 01:03:15;;;;;;;10.68;3.40;;;;;;;-0.12;86.95;100953.13;5018397;28;20092;-77
2023/02/26 01:05:42;;;;;;;11.05;3.65;;;;;;;-0.14;87.03;100953.22;5018872;28;20085;-78
2023/02/26 01:08:13;;;;;;;11.80;3.90;;;;;;;-0.16;87.17;100949.06;5018123;28;20129;-79
2023/02/26 01:10:41;;;;;;;7.13;3.30;;;;;;;-0.19;87.29;100964.66;5017746;28;20065;-80
2023/02/26 01:13:08;;;;;;;5.63;3.47;;;;;;;-0.17;87.44;100962.84;5018143;28;20244;-78
2023/02/26 01:15:37;;;;;;;8.95;3.13;;;;;;;-0.15;87.41;100971.31;5018901;28;20129;-78
2023/02/26 01:18:16;;;;;;;5.03;3.38;;;;;;;-0.25;87.21;100970.09;5021273;28;20474;-79
2023/02/26 01:20:47;;;;;;;7.85;3.50;;;;;;;-0.31;87.80;100971.25;5020707;28;20085;-79
2023/02/26 01:23:16;;;;;;;9.23;3.58;;;;;;;-0.34;87.31;100966.25;5022813;28;20045;-78
2023/02/26 01:25:48;;;;;;;8.60;3.00;;;;;;;-0.40;87.57;100972.53;5021541;28;20053;-79
2023/02/26 01:28:15;;;;;;;13.63;3.55;;;;;;;-0.38;87.62;100975.88;5020839;28;20077;-79
2023/02/26 01:30:44;;;;;;;8.13;3.05;;;;;;;-0.39;87.14;100963.91;5019444;28;20045;-79
2023/02/26 01:33:21;;;;;;;10.25;3.10;;;;;;;-0.41;87.30;100970.88;5019213;28;20042;-77
2023/02/26 01:35:51;;;;;;;4.38;3.03;;;;;;;-0.35;87.08;100973.16;5019754;28;20117;-79
2023/02/26 01:38:27;;;;;;;6.18;3.13;;;;;;;-0.34;86.73;100966.25;5021797;28;20081;-79
2023/02/26 01:41:12;;;;;;;10.57;3.30;;;;;;;-0.39;86.59;100952.81;5023268;28;20129;-80
2023/02/26 01:43:47;;;;;;;5.72;3.00;;;;;;;-0.41;86.80;100954.63;5018775;28;20492;-78
2023/02/26 01:46:21;;;;;;;7.28;3.05;;;;;;;-0.35;86.83;100939.72;5021075;28;20527;-78
2023/02/26 01:48:51;;;;;;;10.60;3.60;;;;;;;-0.25;86.43;100939.25;5019291;28;20050;-77
2023/02/26 01:51:17;;;;;;;8.25;4.20;;;;;;;-0.22;85.98;100944.22;5020649;28;20050;-79
2023/02/26 01:53:44;;;;;;;5.70;3.08;;;;;;;-0.22;86.10;100954.53;5020455;28;20114;-78
2023/02/26 01:56:15;;;;;;;12.23;3.75;;;;;;;-0.18;86.17;100956.03;5022666;28;20110;-77
2023/02/26 01:58:42;;;;;;;8.50;3.15;;;;;;;-0.14;86.22;100953.22;5021003;28;20104;-76
2023/02/26 02:01:08;;;;;;;5.82;3.15;;;;;;;-0.12;85.81;100958.28;5019315;28;20081;-78
2023/02/26 02:03:39;;;;;;;6.97;3.38;;;;;;;-0.15;86.35;100961.00;5022782;28;20104;-79
2023/02/26 02:06:09;;;;;;;9.10;3.50;;;;;;;-0.12;85.87;100961.69;5027735;28;20128;-78
2023/02/26 02:08:36;;;;;;;4.63;3.05;;;;;;;-0.08;85.93;100967.50;5024947;28;20153;-78
2023/02/26 02:11:04;;;;;;;9.05;3.00;;;;;;;-0.05;85.57;100967.34;5024613;28;20073;-79
2023/02/26 02:13:40;;;;;;;8.02;3.50;;;;;;;-0.07;85.82;100962.28;5021629;28;20084;-79
2023/02/26 02:16:17;;;;;;;4.68;2.80;;;;;;;-0.16;86.17;100965.31;5024452;28;20050;-79
2023/02/26 02:18:53;;;;;;;8.23;3.42;;;;;;;-0.32;86.49;100968.75;5017942;28;20455;-77
2023/02/26 02:22:06;;;;;;;8.88;3.17;;;;;;;-0.41;86.54;100970.88;5016829;28;20046;-75
2023/02/26 02:24:46;;;;;;;6.20;3.13;;;;;;;-0.49;86.96;100978.19;5017973;28;20102;-79
2023/02/26 02:27:19;;;;;;;10.13;3.20;;;;;;;-0.55;87.29;100981.06;5015825;28;20073;-78
2023/02/26 02:30:24;;;;;;;9.75;3.83;;;;;;;-0.57;88.11;100993.16;5023831;28;20543;-77
2023/02/26 02:32:58;;;;;;;5.25;3.17;;;;;;;-0.68;88.16;101001.38;5023949;28;20045;-77
2023/02/26 02:35:29;;;;;;;9.70;3.60;;;;;;;-0.75;88.55;100996.63;5026989;28;20084;-79
2023/02/26 02:38:00;;;;;;;7.63;3.58;;;;;;;-0.79;88.70;101005.38;5026878;28;20080;-79
2023/02/26 02:40:31;;;;;;;6.38;3.42;;;;;;;-0.81;89.24;101014.88;5028068;28;20411;-79
2023/02/26 02:43:02;;;;;;;9.52;3.47;;;;;;;-0.83;89.59;101020.09;5028443;28;20078;-79
2023/02/26 02:45:40;;;;;;;5.65;3.25;;;;;;;-0.77;89.69;101029.25;5028756;28;20176;-79
2023/02/26 02:48:13;;;;;;;10.52;3.17;;;;;;;-0.85;89.79;101028.78;5018260;28;20073;-77
2023/02/26 02:50:44;;;;;;;7.32;3.40;;;;;;;-0.89;89.72;101030.66;5027237;28;20058;-79
2023/02/26 02:53:17;;;;;;;6.70;3.33;;;;;;;-0.95;89.99;101041.25;5054998;23;20526;-82
2023/02/26 02:55:48;;;;;;;7.05;3.40;;;;;;;-1.00;90.26;101040.66;5038535;28;20132;-81
2023/02/26 02:58:19;;;;;;;7.80;3.20;;;;;;;-1.05;90.75;101034.88;5040126;28;20081;-82
2023/02/26 03:00:49;;;;;;;8.32;3.47;;;;;;;-1.05;90.47;101043.44;5041482;28;20129;-80
2023/02/26 03:03:24;;;;;;;7.82;3.45;;;;;;;-1.04;90.36;101039.97;5040218;28;20566;-81
2023/02/26 03:05:51;;;;;;;8.15;3.58;;;;;;;-1.04;90.44;101039.97;5040304;28;20137;-81
2023/02/26 03:08:20;;;;;;;11.90;3.80;;;;;;;-1.07;90.65;101034.97;5039407;28;20053;-81
2023/02/26 03:10:47;;;;;;;4.88;3.13;;;;;;;-0.98;90.74;101040.56;5040339;28;20143;-81
2023/02/26 03:13:17;;;;;;;8.70;3.50;;;;;;;-0.98;90.50;101045.72;5040039;28;20049;-80
2023/02/26 03:15:57;;;;;;;7.57;3.38;;;;;;;-0.98;90.06;101040.56;5042656;28;20046;-79
2023/02/26 03:18:35;;;;;;;8.10;3.45;;;;;;;-1.03;89.78;101044.19;5039617;28;20052;-81
2023/02/26 03:21:07;;;;;;;8.20;3.30;;;;;;;-1.06;90.35;101046.91;5031364;28;20077;-81
2023/02/26 03:23:39;;;;;;;7.82;4.47;;;;;;;-1.12;90.25;101042.03;5036599;28;20045;-80
2023/02/26 03:26:13;;;;;;;6.80;2.67;;;;;;;-1.14;90.54;101045.59;5034402;28;20073;-81
2023/02/26 03:28:45;;;;;;;8.38;3.50;;;;;;;-1.15;90.56;101046.50;5038562;28;20451;-81
2023/02/26 03:31:19;;;;;;;7.03;3.40;;;;;;;-1.20;90.25;101051.00;5039418;28;20056;-82
2023/02/26 03:33:53;;;;;;;9.43;3.42;;;;;;;-1.19;90.30;101047.53;5038877;28;20128;-81
2023/02/26 03:36:24;;;;;;;8.73;3.55;;;;;;;-1.24;90.00;101054.63;5035804;28;20084;-81
2023/02/26 03:38:57;;;;;;;10.32;3.70;;;;;;;-1.24;89.71;101067.44;5042560;28;20488;-82
2023/02/26 03:41:30;;;;;;;5.85;3.15;;;;;;;-1.24;89.50;101070.03;5041301;28;20457;-80
2023/02/26 03:44:01;;;;;;;5.45;3.67;;;;;;;-1.26;89.56;101072.66;5039290;28;20542;-82
2023/02/26 03:46:32;;;;;;;6.90;3.20;;;;;;;-1.18;89.65;101075.72;5039050;28;20083;-81
2023/02/26 03:49:06;;;;;;;9.38;3.78;;;;;;;-1.09;89.21;101075.28;5036486;28;20109;-82
2023/02/26 03:51:38;;;;;;;9.27;3.60;;;;;;;-1.12;88.72;101075.44;5039752;28;20133;-82
2023/02/26 03:54:10;;;;;;;7.85;3.40;;;;;;;-1.22;88.93;101066.47;5033683;28;20104;-82
2023/02/26 03:56:41;;;;;;;6.25;2.85;;;;;;;-1.12;88.43;101090.84;5035724;28;20042;-82
2023/02/26 03:59:08;;;;;;;8.85;3.20;;;;;;;-1.12;88.53;101095.97;5037105;28;20053;-80
2023/02/26 04:01:41;;;;;;;6.57;2.88;;;;;;;-1.14;88.18;101087.50;5034085;28;20558;-80
2023/02/26 04:04:18;;;;;;;7.72;2.88;;;;;;;-1.07;87.72;101099.16;5032694;28;20086;-81
2023/02/26 04:06:46;;;;;;;5.85;3.33;;;;;;;-1.01;87.24;101088.63;5034825;28;20132;-82
2023/02/26 04:09:13;;;;;;;7.03;2.90;;;;;;;-0.91;86.59;101094.13;5036696;28;20523;-80
2023/02/26 04:11:40;;;;;;;3.80;2.40;;;;;;;-0.91;85.96;101090.72;5031874;28;20073;-81
2023/02/26 04:14:06;;;;;;;6.25;2.35;;;;;;;-0.89;85.80;101088.94;5036799;28;20117;-81
2023/02/26 04:16:33;;;;;;;4.50;2.53;;;;;;;-0.89;85.17;101081.22;5036544;28;20056;-80
2023/02/26 04:19:00;;;;;;;4.50;2.45;;;;;;;-0.91;85.05;101085.59;5037258;28;20055;-81
2023/02/26 04:21:28;;;;;;;10.07;3.03;;;;;;;-0.96;84.74;101079.88;5036126;28;20061;-81
2023/02/26 04:23:54;;;;;;;6.07;2.78;;;;;;;-1.06;85.08;101092.31;5037245;28;20088;-81
2023/02/26 04:26:21;;;;;;;4.05;2.55;;;;;;;-1.04;85.10;101086.19;5038060;28;20104;-82
2023/02/26 04:28:47;;;;;;;8.55;2.70;;;;;;;-1.15;85.47;101095.28;5041533;28;20132;-81
2023/02/26 04:31:14;;;;;;;6.40;2.58;;;;;;;-1.28;85.53;101097.56;5032983;28;20081;-81
2023/02/26 04:33:41;;;;;;;5.72;3.05;;;;;;;-1.43;86.20;101105.97;5034433;28;20049;-81
2023/02/26 04:36:09;;;;;;;7.90;2.80;;;;;;;-1.45;86.80;101113.75;5032347;28;20104;-81
2023/02/26 04:38:37;;;;;;;5.78;2.22;;;;;;;-1.34;86.55;101111.50;5034308;28;20053;-81
2023/02/26 04:41:04;;;;;;;10.32;3.00;;;;;;;-1.41;86.68;101114.41;5029127;28;20061;-80
2023/02/26 04:43:31;;;;;;;5.30;2.92;;;;;;;-1.47;87.34;101125.81;5051513;28;20084;-82
2023/02/26 04:45:58;;;;;;;6.00;2.88;;;;;;;-1.51;87.27;101124.28;5050362;28;20045;-81
2023/02/26 04:48:25;;;;;;;7.70;3.33;;;;;;;-1.53;87.61;101126.06;5051935;28;20088;-81
2023/02/26 04:50:52;;;;;;;6.07;3.00;;;;;;;-1.56;87.77;101136.47;5049403;28;20049;-81
2023/02/26 04:53:18;;;;;;;4.30;2.60;;;;;;;-1.58;87.90;101142.56;5048170;28;20077;-82
2023/02/26 04:55:49;;;;;;;4.80;2.58;;;;;;;-1.59;87.89;101135.78;5050985;28;20041;-82
2023/02/26 04:58:16;;;;;;;6.28;2.80;;;;;;;-1.63;87.74;101140.19;5047911;28;20049;-81
2023/02/26 05:00:43;;;;;;;5.63;3.10;;;;;;;-1.73;88.42;101142.31;5038778;28;20084;-83
2023/02/26 05:03:12;;;;;;;5.45;2.95;;;;;;;-1.75;88.47;101150.97;5041056;28;20057;-83
2023/02/26 05:05:39;;;;;;;3.80;2.60;;;;;;;-1.80;88.37;101146.03;5040261;28;20124;-83
2023/02/26 05:08:05;;;;;;;6.90;2.95;;;;;;;-1.75;88.66;101156.94;5042154;28;20109;-83
2023/02/26 05:10:32;;;;;;;7.55;3.10;;;;;;;-1.79;88.69;101164.84;5039504;28;20052;-83
2023/02/26 05:13:00;;;;;;;9.75;3.15;;;;;;;-1.78;89.10;101158.81;5039738;28;20088;-80
2023/02/26 05:15:26;;;;;;;8.05;3.25;;;;;;;-1.83;89.35;101156.44;5040448;28;20236;-81
2023/02/26 05:17:53;;;;;;;7.13;2.88;;;;;;;-1.85;89.39;101170.22;5041247;28;20113;-81
2023/02/26 05:20:21;;;;;;;5.80;2.88;;;;;;;-1.84;89.79;101174.44;5042064;28;20053;-82
2023/02/26 05:22:50;;;;;;;8.52;4.82;;;;;;;-1.76;90.16;101175.81;5042361;28;20108;-82
2023/02/26 05:25:17;;;;;;;4.05;2.90;;;;;;;-1.79;89.95;101181.06;5042655;28;20469;-79
2023/02/26 05:27:43;;;;;;;7.00;3.15;;;;;;;-1.76;90.17;101190.38;5042856;28;20053;-81
2023/02/26 05:30:15;;;;;;;9.05;3.33;;;;;;;-1.80;90.74;101191.38;5042457;28;20148;-81
2023/02/26 05:32:42;;;;;;;5.20;3.22;;;;;;;-1.76;90.71;101191.19;5041422;28;20148;-83
2023/02/26 05:35:09;;;;;;;8.10;3.25;;;;;;;-1.73;90.33;101201.34;5040391;28;20507;-83
2023/02/26 05:37:36;;;;;;;6.63;3.47;;;;;;;-1.75;90.76;101187.72;5039748;28;20053;-81
2023/02/26 05:40:04;;;;;;;10.05;3.70;;;;;;;-1.76;90.96;101195.50;5041200;28;20080;-82
2023/02/26 05:42:31;;;;;;;7.60;4.03;;;;;;;-1.73;91.02;101209.03;5042008;28;20128;-81
2023/02/26 05:44:57;;;;;;;6.70;3.53;;;;;;;-1.72;90.87;101197.03;5041974;28;20132;-81
2023/02/26 05:47:25;;;;;;;10.93;3.50;;;;;;;-1.63;91.05;101203.50;5042821;28;20049;-83
2023/02/26 05:49:52;;;;;;;7.70;3.50;;;;;;;-1.69;90.81;101205.44;5037088;28;20052;-83
2023/02/26 05:52:20;;;;;;;6.13;3.72;;;;;;;-1.64;90.21;101214.69;5036426;28;20069;-83
2023/02/26 05:54:46;;;;;;;8.48;3.20;;;;;;;-1.69;90.37;101208.00;5038793;28;20049;-83
2023/02/26 05:57:13;;;;;;;6.85;3.13;;;;;;;-1.62;90.55;101210.31;5038125;28;20140;-83
2023/02/26 05:59:40;;;;;;;6.22;3.15;;;;;;;-1.72;90.86;101223.53;5042469;28;20117;-82
2023/02/26 06:02:06;;;;;;;7.18;3.20;;;;;;;-1.68;90.43;101231.94;5041020;28;20526;-82
2023/02/26 06:04:36;;;;;;;7.32;3.03;;;;;;;-1.64;90.07;101225.78;5045747;28;20084;-83
2023/02/26 06:07:03;;;;;;;11.13;3.45;;;;;;;-1.63;90.52;101232.59;5043891;28;20068;-83
2023/02/26 06:09:29;;;;;;;5.38;3.50;;;;;;;-1.57;90.18;101241.75;5042989;28;20099;-83
2023/02/26 06:11:56;;;;;;;8.20;3.25;;;;;;;-1.65;89.87;101248.94;5043110;28;20475;-83
2023/02/26 06:14:23;;;;;;;5.35;3.25;;;;;;;-1.69;90.02;101245.66;5042843;28;20136;-83
2023/02/26 06:16:50;;;;;;;9.35;3.70;;;;;;;-1.72;90.37;101249.19;5034727;28;20054;-83
2023/02/26 06:19:16;;;;;;;10.43;3.58;;;;;;;-1.72;90.12;101253.47;5042638;28;20115;-83
2023/02/26 06:21:44;;;;;;;9.90;4.00;;;;;;;-1.73;90.06;101256.94;5041797;28;20082;-81
2023/02/26 06:24:11;;;;;;;7.63;3.30;;;;;;;-1.76;90.03;101257.91;5042589;28;20483;-83
2023/02/26 06:26:37;;;;;;;5.50;3.42;;;;;;;-1.71;90.08;101261.13;5041823;28;20108;-82
2023/02/26 06:29:04;;;;;;;7.30;3.03;;;;;;;-1.71;90.12;101266.25;5041740;28;20109;-83
2023/02/26 06:31:31;;;;;;;5.70;3.30;;;;;;;-1.74;90.52;101268.94;5037527;28;20091;-82
2023/02/26 06:33:57;;;;;;;5.35;3.05;;;;;;;-1.86;90.53;101269.41;5042760;28;20136;-81
2023/02/26 06:36:27;;;;;;;5.80;3.40;;;;;;;-1.82;91.06;101276.09;5043009;28;20048;-81
2023/02/26 06:38:55;;;;;;;5.07;3.28;;;;;;;-1.88;91.06;101280.63;5042441;28;20049;-81
2023/02/26 06:41:24;;;;;;;9.57;3.42;;;;;;;-1.88;91.35;101285.78;5042190;28;20472;-81
2023/02/26 06:43:51;;;;;;;7.57;3.60;;;;;;;-1.91;90.99;101284.19;5042751;28;20464;-81
2023/02/26 06:46:18;;;;;;;5.35;3.30;;;;;;;-1.77;90.80;101291.31;5042560;28;20068;-80
2023/02/26 06:48:44;;;;;;;9.98;4.35;;;;;;;-1.76;91.36;101298.94;5044449;28;20060;-81
2023/02/26 06:51:11;;;;;;;6.05;3.50;;;;;;;-1.73;91.32;101309.09;5045413;28;20081;-81
2023/02/26 06:53:37;;;;;;;12.35;3.30;;;;;;;-1.77;91.21;101292.16;5045357;28;20423;-82
2023/02/26 06:56:06;;;;;;;7.25;3.38;;;;;;;-1.58;90.77;101310.22;5045221;28;20069;-82
2023/02/26 06:58:33;;;;;;;7.43;3.05;;;;;;;-1.19;90.47;101323.13;5043775;28;20304;-82
2023/02/26 07:01:03;;;;;;;11.13;3.90;;;;;;;-0.83;89.45;101325.88;5044437;28;20109;-82
2023/02/26 07:03:32;;;;;;;6.93;3.20;;;;;;;-0.47;88.47;101322.56;5046780;28;20052;-83
2023/02/26 07:06:01;;;;;;;7.53;3.10;;;;;;;-0.21;86.82;101322.22;5045223;28;20054;-82
2023/02/26 07:08:27;;;;;;;4.90;3.25;;;;;;;0.00;85.63;101325.56;5044196;28;20077;-82
2023/02/26 07:10:54;;;;;;;5.53;2.90;;;;;;;0.11;84.80;101328.44;5036841;28;20117;-82
2023/02/26 07:13:22;;;;;;;8.57;3.15;;;;;;;0.14;83.99;101323.16;5044846;28;20045;-82
2023/02/26 07:15:51;;;;;;;7.30;3.20;;;;;;;0.52;83.23;101338.50;5037260;28;20065;-82
2023/02/26 07:18:18;;;;;;;6.82;3.13;;;;;;;0.42;82.19;101334.72;5037683;28;20105;-82
2023/02/26 07:20:45;;;;;;;5.32;3.15;;;;;;;0.23;82.21;101340.72;5043029;28;20113;-82
2023/02/26 07:23:14;;;;;;;5.38;2.88;;;;;;;0.47;81.86;101355.94;5043059;28;20088;-82
2023/02/26 07:25:41;;;;;;;8.45;3.28;;;;;;;0.42;81.53;101352.75;5043148;28;20157;-82
2023/02/26 07:28:08;;;;;;;7.25;3.33;;;;;;;0.29;81.30;101353.31;5044007;28;20046;-83
2023/02/26 07:30:36;;;;;;;5.20;3.05;;;;;;;0.39;81.34;101352.88;5043068;28;20455;-82
2023/02/26 07:33:05;;;;;;;7.95;3.15;;;;;;;0.80;80.84;101367.16;5035808;28;20416;-82
2023/02/26 07:35:32;;;;;;;7.30;3.40;;;;;;;0.67;80.12;101366.06;5040973;28;20124;-83
2023/02/26 07:37:58;;;;;;;6.32;3.30;;;;;;;1.02;79.99;101376.38;5040833;28;20115;-82
2023/02/26 07:40:25;;;;;;;7.97;3.33;;;;;;;1.03;79.41;101381.47;5040253;28;20511;-83
2023/02/26 07:42:51;;;;;;;8.00;3.60;;;;;;;1.22;79.15;101383.94;5040890;28;20071;-82
2023/02/26 07:45:21;;;;;;;11.35;3.70;;;;;;;0.83;79.48;101384.22;5039741;28;20480;-81
2023/02/26 07:47:49;;;;;;;7.18;3.45;;;;;;;0.66;79.20;101387.59;5040060;28;20053;-81
2023/02/26 07:50:16;;;;;;;6.82;4.10;;;;;;;0.75;79.37;101392.31;5039609;28;20117;-82
2023/02/26 07:52:42;;;;;;;7.70;3.60;;;;;;;0.77;79.66;101393.06;5044305;28;20073;-80
2023/02/26 07:55:10;;;;;;;8.48;3.65;;;;;;;0.91;79.29;101403.53;5047630;28;20185;-80
2023/02/26 07:57:37;;;;;;;7.55;4.13;;;;;;;1.09;79.06;101406.94;5043797;28;20057;-81
2023/02/26 08:00:05;;;;;;;7.05;3.65;;;;;;;0.68;79.06;101396.09;5040237;28;20059;-81
2023/02/26 08:02:32;;;;;;;9.85;3.65;;;;;;;1.06;79.37;101401.94;5041339;28;20113;-80
2023/02/26 08:05:00;;;;;;;7.55;3.25;;;;;;;1.29;78.35;101403.34;5040348;28;20180;-81
2023/02/26 08:07:26;;;;;;;11.00;4.03;;;;;;;1.40;78.43;101403.66;5040526;28;20061;-80
2023/02/26 08:09:53;;;;;;;8.02;3.40;;;;;;;1.88;78.19;101402.84;5041286;28;20132;-80
2023/02/26 08:12:19;;;;;;;8.10;3.70;;;;;;;1.61;77.21;101409.44;5041392;28;20117;-82
2023/02/26 08:14:46;;;;;;;5.72;3.67;;;;;;;1.55;77.22;101420.91;5041606;28;20097;-82
2023/02/26 08:17:14;;;;;;;4.60;2.90;;;;;;;1.71;77.35;101420.94;5045743;28;20045;-80
2023/02/26 08:19:41;;;;;;;6.57;3.42;;;;;;;1.65;77.04;101414.34;5038595;28;20049;-82
2023/02/26 08:22:09;;;;;;;7.35;3.60;;;;;;;2.01;76.44;101397.81;5038545;28;20109;-81
2023/02/26 08:24:35;;;;;;;6.65;3.60;;;;;;;1.79;75.81;101412.81;5038373;28;20201;-81
2023/02/26 08:27:02;;;;;;;7.60;3.97;;;;;;;1.84;76.23;101418.56;5037376;28;20072;-82
2023/02/26 08:29:29;;;;;;;6.32;3.80;;;;;;;1.90;76.48;101418.22;5037137;28;20122;-81
2023/02/26 08:31:55;;;;;;;7.05;3.70;;;;;;;2.39;75.23;101403.47;5036826;28;20053;-81
2023/02/26 08:34:22;;;;;;;7.22;3.45;;;;;;;1.85;75.17;101407.31;5029270;28;20076;-81
2023/02/26 08:36:49;;;;;;;6.25;3.50;;;;;;;1.78;75.57;101416.31;5036658;28;20049;-82
2023/02/26 08:39:17;;;;;;;6.88;3.60;;;;;;;2.08;75.34;101414.66;5037212;28;20112;-81
2023/02/26 08:41:44;;;;;;;6.88;3.53;;;;;;;1.76;75.76;101423.28;5037137;28;20128;-79
2023/02/26 08:44:10;;;;;;;6.53;3.60;;;;;;;1.55;75.71;101418.31;5037094;28;20053;-82
2023/02/26 08:46:37;;;;;;;8.02;3.70;;;;;;;1.83;75.85;101433.22;5039592;28;20049;-83
2023/02/26 08:49:04;;;;;;;5.85;3.50;;;;;;;1.98;75.63;101426.38;5039402;28;20053;-81
2023/02/26 08:51:30;;;;;;;7.72;4.10;;;;;;;2.12;75.56;101431.66;5038966;28;20148;-81
2023/02/26 08:59:13;;;;;;;8.35;4.03;;;;;;;2.02;74.81;101434.81;5015295;28;20084;-79
2023/02/26 09:05:11;;;;;;;6.60;3.58;;;;;;;1.97;73.90;101437.63;4976558;28;20054;-80
2023/02/26 09:32:28;;;;;;;;;;;;;;;;;;;;;
2023/02/26 09:44:41;;;;;;;6.47;3.17;;;;;;;1.52;71.54;101495.84;4971367;28;20057;-79
2023/02/26 09:47:25;;;;;;;5.07;2.55;;;;;;;1.84;71.25;101506.31;4972150;28;20113;-79
2023/02/26 09:50:00;;;;;;;5.82;3.08;;;;;;;2.07;71.15;101503.34;5007756;28;20538;-80
2023/02/26 09:52:37;;;;;;;4.07;2.75;;;;;;;1.98;70.55;101511.56;5014591;28;20050;-79
2023/02/26 10:01:05;;;;;;;5.95;3.03;;;;;;;2.07;69.94;101528.34;5028252;28;21232;-77
2023/02/26 10:03:37;;;;;;;4.43;2.92;;;;;;;1.93;68.80;101524.72;5029994;28;20063;-78
2023/02/26 10:06:25;;;;;;;3.10;2.50;;;;;;;1.85;68.75;101526.03;5029674;28;20046;-75
2023/02/26 10:09:06;;;;;;;12.80;3.00;;;;;;;1.69;68.62;101525.97;5018954;28;20053;-77
2023/02/26 10:11:39;;;;;;;4.70;2.67;;;;;;;1.74;68.30;101518.84;5010509;28;20161;-77
2023/02/26 10:14:10;;;;;;;;;;;;;;;1.55;68.07;101529.22;5011350;28;20415;-76
2023/02/26 10:16:42;;;;;;;3.50;2.00;;;;;;;1.60;67.87;101527.25;5010155;28;20415;-77
2023/02/26 10:19:15;;;;;;;6.57;2.95;;;;;;;1.74;68.30;101533.47;5001228;28;20081;-77
2023/02/26 10:21:46;;;;;;;4.03;2.67;;;;;;;1.88;67.22;101547.38;5010760;28;20050;-78
2023/02/26 10:24:18;;;;;;;3.58;2.58;;;;;;;1.86;67.29;101535.44;5005161;28;20125;-77
2023/02/26 10:26:50;;;;;;;4.25;2.40;;;;;;;2.18;67.09;101534.59;5012131;28;20073;-77
2023/02/26 10:29:24;;;;;;;4.83;2.00;;;;;;;2.37;66.48;101539.63;5007754;28;20923;-78
2023/02/26 10:32:18;;;;;;;7.65;3.10;;;;;;;2.47;65.84;101542.56;5006901;28;20552;-79
2023/02/26 10:34:51;;;;;;;4.38;2.15;;;;;;;2.37;65.04;101538.78;5016035;28;20110;-78
2023/02/26 10:37:23;;;;;;;4.15;2.50;;;;;;;2.72;65.87;101539.50;5017723;28;20113;-78
2023/02/26 10:39:53;;;;;;;3.72;2.40;;;;;;;2.79;64.23;101531.34;5019030;28;20046;-76
2023/02/26 10:42:25;;;;;;;3.47;2.72;;;;;;;2.88;64.15;101540.31;5015665;28;20560;-77
2023/02/26 10:45:02;;;;;;;8.63;2.70;;;;;;;2.84;64.64;101534.47;5009110;28;20061;-78
2023/02/26 10:47:38;;;;;;;3.85;2.45;;;;;;;3.03;64.32;101533.47;5020578;28;20037;-77
2023/02/26 10:50:10;;;;;;;5.03;2.47;;;;;;;3.03;64.30;101542.06;5018578;28;20137;-77
2023/02/26 10:52:38;;;;;;;5.83;2.50;;;;;;;3.54;64.20;101530.50;5011890;28;20046;-77
2023/02/26 10:55:29;;;;;;;2.95;2.22;;;;;;;3.66;63.13;101542.72;5015336;28;20042;-77
2023/02/26 10:58:04;;;;;;;4.38;2.90;;;;;;;3.35;63.02;101547.97;5021743;28;20129;-76
2023/02/26 11:00:31;;;;;;;3.58;2.42;;;;;;;3.64;61.94;101539.41;5014723;28;20136;-78
2023/02/26 11:03:00;;;;;;;4.90;2.30;;;;;;;3.47;61.75;101529.19;5017672;28;20577;-76
2023/02/26 11:05:29;;;;;;;4.88;2.92;;;;;;;3.48;61.66;101536.03;5020046;28;20078;-78
2023/02/26 11:08:01;;;;;;;6.40;2.15;;;;;;;4.13;60.94;101540.84;5017831;28;20076;-79
2023/02/26 11:10:38;;;;;;;4.07;2.28;;;;;;;3.57;60.56;101530.31;5020468;28;20494;-79
2023/02/26 11:13:05;;;;;;;4.55;2.58;;;;;;;3.43;60.90;101532.88;5020549;28;20129;-77
2023/02/26 11:15:32;;;;;;;4.70;2.30;;;;;;;3.72;60.63;101545.88;5014328;28;20074;-78
2023/02/26 11:18:01;;;;;;;4.53;2.35;;;;;;;3.75;61.26;101550.88;5022667;28;20074;-76
2023/02/26 11:20:34;;;;;;;6.00;2.15;;;;;;;3.50;60.26;101552.28;5019892;28;20111;-79
2023/02/26 11:23:03;;;;;;;6.07;2.65;;;;;;;3.53;60.56;101546.94;5019702;28;20415;-79
2023/02/26 11:25:32;;;;;;;6.07;2.40;;;;;;;3.86;60.74;101551.06;5019273;28;20065;-78
2023/02/26 11:28:02;;;;;;;3.47;2.58;;;;;;;3.56;61.47;101551.09;5019836;28;20113;-78
2023/02/26 11:30:35;;;;;;;3.75;2.13;;;;;;;3.21;60.86;101558.31;5018166;28;20057;-77
2023/02/26 11:33:16;;;;;;;3.70;2.20;;;;;;;3.25;60.83;101559.78;5018403;28;20046;-77
2023/02/26 11:35:42;;;;;;;4.93;2.50;;;;;;;3.02;60.83;101558.47;5019099;28;20080;-78
2023/02/26 11:38:18;;;;;;;7.55;2.53;;;;;;;2.94;61.00;101556.31;5011664;28;20101;-78
2023/02/26 11:40:47;;;;;;;3.22;2.15;;;;;;;2.93;61.20;101557.22;5019089;28;20081;-78
2023/02/26 11:43:19;;;;;;;4.22;2.25;;;;;;;2.83;60.50;101553.50;5013019;28;20057;-78
2023/02/26 11:45:51;;;;;;;3.70;2.22;;;;;;;2.57;60.58;101552.31;5017296;28;20052;-77
2023/02/26 11:48:23;;;;;;;4.63;2.33;;;;;;;2.54;60.58;101547.31;5019464;28;20072;-78
2023/02/26 11:50:56;;;;;;;5.65;2.42;;;;;;;2.59;61.20;101553.06;5020529;28;20042;-78
2023/02/26 11:53:31;;;;;;;4.78;2.70;;;;;;;2.48;61.08;101557.13;5019992;28;20259;-79
2023/02/26 11:56:03;;;;;;;6.78;2.35;;;;;;;2.45;61.08;101552.13;5020144;28;20058;-78
2023/02/26 11:58:36;;;;;;;5.03;2.20;;;;;;;2.63;60.72;101543.41;5010750;28;20042;-78
2023/02/26 12:01:04;;;;;;;3.20;1.92;;;;;;;2.76;60.71;101541.00;5013390;28;20061;-78
2023/02/26 12:03:34;;;;;;;4.53;2.05;;;;;;;2.68;60.88;101546.59;5015751;28;20136;-79
2023/02/26 12:06:03;;;;;;;3.58;2.15;;;;;;;2.86;60.89;101530.06;5013350;28;20084;-79
2023/02/26 12:08:37;;;;;;;3.08;2.20;;;;;;;2.96;60.38;101538.97;5019145;28;20387;-77
2023/02/26 12:11:47;;;;;;;4.88;2.90;;;;;;;3.60;60.50;101544.84;5009706;28;20064;-80
2023/02/26 12:14:30;;;;;;;4.82;2.35;;;;;;;3.83;59.36;101535.72;5006273;28;20081;-80
2023/02/26 12:17:01;;;;;;;;;;;;;;;3.55;58.61;101524.41;5020152;28;20053;-78
2023/02/26 12:19:40;;;;;;;3.80;2.13;;;;;;;3.73;58.02;101526.84;5012349;28;19921;-79
2023/02/26 12:22:42;;;;;;;3.70;2.33;;;;;;;3.50;57.62;101518.66;5016113;28;20058;-79
2023/02/26 12:25:22;;;;;;;2.95;2.00;;;;;;;3.34;58.08;101534.22;5016902;28;20053;-79
2023/02/26 12:28:08;;;;;;;4.00;2.33;;;;;;;3.14;58.11;101531.13;5017362;28;20096;-78
2023/02/26 12:30:51;;;;;;;6.43;2.42;;;;;;;3.15;58.81;101522.44;5016749;28;20440;-79
2023/02/26 12:33:31;;;;;;;4.03;2.42;;;;;;;3.00;59.11;101535.28;5013434;28;20081;-79